Madison, AL

2:42 AM CDT on July 06, 2015 (GMT -0500)
Central Madison | | Change Station
CLOSE
Current Station
Personal Weather Station
Location: Madison, AL
Elevation: 771 ft
Nearby Weather Stations

Elev 771 ft 34.72 °N, 86.75 °W | Updated 12 seconds ago

Mostly Cloudy
Mostly Cloudy
70.3 °F
Feels Like 70.3 °F
N
0.0
Wind Variable Wind from North
Gusts 0.0 mph

Today
High -- | Low -- °F
--% Chance of Precip.
Yesterday
High -- | Low -- °F
Precip. -- in
5:39 AM 8:03 PM
Waning Gibbous, 78% visible
Pressure 30.07 in
Visibility 8.0 miles
Clouds Mostly Cloudy 2000 ft
Mostly Cloudy 5000 ft
Dew Point 69 °F
Humidity 95%
Rainfall 0.00 in
Snow Depth Not available.
UV 0 out of 12
Pollen .50 out of 12
Air Quality Not available.
Flu Activity Not available.
SPECI KHUA 060733Z AUTO 07001KT 8SM BKN020 BKN050 21/21 A3007 RMK AO2 CIG 020V050 BKN020 V SCT

More Conditions Fewer Conditions

Pressure 30.07 in
Visibility 8.0 miles
Clouds Mostly Cloudy 2000 ft
Mostly Cloudy 5000 ft
Dew Point 69 °F
Humidity 95%
Rainfall 0.00 in
Snow Depth Not available.
UV 0 out of 12
Pollen .50 out of 12
Air Quality Not available.
Flu Activity Not available.
SPECI KHUA 060733Z AUTO 07001KT 8SM BKN020 BKN050 21/21 A3007 RMK AO2 CIG 020V050 BKN020 V SCT

More Conditions Fewer Conditions

10-Day Weather Forecast

×

Almanac

Astronomy

Jul. 06, 2015 Rise Set
Actual Time
Civil Twilight
Nautical Twilight
Astronomical Twilight
Moon
Length of Visible Light
Length of Day
Tomorrow will be .
, % of the Moon is Illuminated

Today's Extremes

State Highs State Lows

Community

WunderPhotos

Upload Photos

1,835,507 photos uploaded!

WunderBlogs® & News

Nearby

Air Quality

  Air Quality AQ Index Pollutant
Not available.

Snow Depth

Station Depth Elevation

Earthquake Activity

City Distance Mag. Time & Date
Minimum magnitude displayed is 2.5.

Coastal Water Temperatures

Place Temperature

Stations

Nearby Weather Stations

Station Location Temp. Windchill Dew Point Humidity Wind Precip. Elev Updated Type